createdAt,value
2018-05-26T00:00:15.519Z,9.90
2018-05-26T00:01:15.583Z,10.80
2018-05-26T00:02:15.643Z,11.60
2018-05-26T00:03:15.704Z,10.40
2018-05-26T00:04:15.767Z,10.40
2018-05-26T00:05:15.829Z,12.60
2018-05-26T00:06:15.889Z,10.20
2018-05-26T00:07:15.953Z,12.60
2018-05-26T00:08:16.014Z,13.60
2018-05-26T00:09:16.076Z,12.60
2018-05-26T00:10:16.138Z,9.70
2018-05-26T00:11:16.205Z,12.70
2018-05-26T00:12:16.261Z,10.60
2018-05-26T00:13:16.321Z,10.50
2018-05-26T00:14:16.383Z,11.00
2018-05-26T00:15:16.445Z,10.80
2018-05-26T00:16:16.508Z,10.20
2018-05-26T00:17:16.570Z,11.20
2018-05-26T00:18:16.631Z,9.20
2018-05-26T00:19:16.691Z,12.30
2018-05-26T00:20:16.753Z,11.30
2018-05-26T00:21:16.815Z,9.70
2018-05-26T00:22:16.876Z,11.80
2018-05-26T00:23:16.937Z,11.60
2018-05-26T00:24:17.000Z,9.70
2018-05-26T00:25:17.061Z,12.70
2018-05-26T00:26:17.122Z,11.50
2018-05-26T00:27:17.184Z,11.90
2018-05-26T00:28:17.248Z,11.90
2018-05-26T00:29:17.313Z,10.90
2018-05-26T00:30:17.370Z,11.90
2018-05-26T00:31:17.430Z,10.70
2018-05-26T00:32:17.492Z,9.60
2018-05-26T00:33:17.552Z,10.10
2018-05-26T00:34:17.864Z,8.60
2018-05-26T00:35:17.674Z,11.10
2018-05-26T00:36:17.738Z,9.80
2018-05-26T00:37:17.799Z,10.50
2018-05-26T00:38:17.860Z,10.50
2018-05-26T00:39:17.921Z,11.60
2018-05-26T00:40:17.985Z,11.40
2018-05-26T00:41:18.050Z,11.00
2018-05-26T00:42:18.106Z,10.30
2018-05-26T00:43:18.168Z,12.10
2018-05-26T00:44:18.231Z,10.20
2018-05-26T00:45:18.292Z,9.40
2018-05-26T00:46:18.351Z,12.60
2018-05-26T00:47:18.413Z,9.20
2018-05-26T00:48:18.475Z,10.50
2018-05-26T00:49:18.537Z,10.30
2018-05-26T00:50:18.597Z,10.40
2018-05-26T00:51:18.659Z,12.40
2018-05-26T00:52:18.720Z,10.10
2018-05-26T00:53:18.784Z,11.40
2018-05-26T00:54:18.844Z,10.90
2018-05-26T00:55:18.904Z,12.20
2018-05-26T00:56:18.966Z,10.50
2018-05-26T00:57:19.028Z,13.00
2018-05-26T00:58:19.089Z,10.90
2018-05-26T00:59:19.149Z,9.90
2018-05-26T01:00:19.213Z,11.00
2018-05-26T01:01:19.272Z,9.40
2018-05-26T01:02:19.333Z,12.80
2018-05-26T01:03:19.396Z,10.80
2018-05-26T01:04:19.457Z,10.40
2018-05-26T01:05:19.519Z,13.00
2018-05-26T01:06:19.579Z,9.70
2018-05-26T01:07:19.641Z,9.80
2018-05-26T01:08:19.702Z,10.80
2018-05-26T01:09:19.766Z,10.90
2018-05-26T01:10:19.824Z,11.40
2018-05-26T01:11:19.886Z,11.30
2018-05-26T01:12:19.947Z,11.60
2018-05-26T01:13:20.008Z,12.10
2018-05-26T01:14:20.071Z,12.40
2018-05-26T01:15:20.142Z,10.10
2018-05-26T01:16:20.191Z,13.80
2018-05-26T01:17:20.254Z,11.40
2018-05-26T01:18:20.314Z,11.00
2018-05-26T01:19:20.375Z,11.00
2018-05-26T01:20:20.437Z,11.00
2018-05-26T01:21:20.499Z,10.30
2018-05-26T01:22:20.558Z,11.40
2018-05-26T01:23:20.621Z,10.50
2018-05-26T01:24:20.682Z,9.80
2018-05-26T01:25:20.747Z,11.30
2018-05-26T01:26:20.805Z,9.50
2018-05-26T01:27:20.866Z,9.30
2018-05-26T01:28:20.926Z,10.90
2018-05-26T01:29:20.988Z,11.00
2018-05-26T01:30:21.053Z,12.70
2018-05-26T01:31:21.110Z,10.30
2018-05-26T01:32:21.171Z,10.90
2018-05-26T01:33:21.234Z,12.50
2018-05-26T01:34:21.294Z,11.30
2018-05-26T01:35:21.356Z,10.20
2018-05-26T01:36:21.417Z,11.00
2018-05-26T01:37:21.481Z,12.00
2018-05-26T01:38:21.539Z,10.90
2018-05-26T01:39:21.599Z,12.10
2018-05-26T01:40:21.661Z,11.80
2018-05-26T01:41:21.722Z,11.10
2018-05-26T01:42:21.783Z,11.80
2018-05-26T01:43:21.844Z,11.10
2018-05-26T01:44:21.906Z,10.50
2018-05-26T01:45:21.968Z,10.10
2018-05-26T01:46:22.031Z,9.90
2018-05-26T01:47:22.089Z,12.40
2018-05-26T01:48:22.153Z,11.80
2018-05-26T01:49:22.216Z,10.70
2018-05-26T01:50:22.275Z,10.70
2018-05-26T01:51:22.333Z,10.00
2018-05-26T01:52:22.395Z,10.70
2018-05-26T01:53:22.457Z,11.30
2018-05-26T01:54:22.517Z,10.10
2018-05-26T01:55:22.829Z,11.80
2018-05-26T01:56:22.640Z,10.80
2018-05-26T01:57:22.700Z,10.50
2018-05-26T01:58:22.760Z,11.10
2018-05-26T01:59:22.822Z,10.80
2018-05-26T02:00:22.884Z,22.10
2018-05-26T02:01:22.945Z,9.80
2018-05-26T02:02:23.008Z,10.40
2018-05-26T02:03:23.069Z,10.50
2018-05-26T02:04:23.126Z,11.60
2018-05-26T02:05:23.192Z,10.40
2018-05-26T02:06:23.252Z,12.90
2018-05-26T02:07:23.310Z,10.80
2018-05-26T02:08:23.372Z,12.10
2018-05-26T02:09:23.433Z,11.50
2018-05-26T02:10:23.495Z,12.60
2018-05-26T02:11:23.553Z,10.50
2018-05-26T02:12:23.616Z,10.90
2018-05-26T02:13:23.677Z,9.10
2018-05-26T02:14:23.738Z,10.80
2018-05-26T02:15:23.798Z,11.20
2018-05-26T02:16:23.859Z,11.60
2018-05-26T02:17:23.922Z,12.10
2018-05-26T02:18:23.981Z,10.70
2018-05-26T02:19:24.045Z,9.80
2018-05-26T02:20:24.104Z,10.70
2018-05-26T02:21:24.169Z,10.70
2018-05-26T02:22:24.225Z,11.50
2018-05-26T02:23:24.285Z,10.80
2018-05-26T02:24:24.347Z,12.00
2018-05-26T02:25:24.409Z,10.20
2018-05-26T02:26:24.468Z,10.60
2018-05-26T02:27:24.530Z,10.90
2018-05-26T02:28:24.592Z,12.20
2018-05-26T02:29:24.652Z,9.30
2018-05-26T02:30:24.714Z,10.30
2018-05-26T02:31:24.783Z,9.30
2018-05-26T02:32:24.837Z,11.10
2018-05-26T02:33:24.897Z,9.90
2018-05-26T02:34:24.982Z,9.40
2018-05-26T02:35:25.169Z,10.20
2018-05-26T02:36:25.079Z,9.00
2018-05-26T02:37:25.141Z,11.50
2018-05-26T02:38:25.200Z,10.80
2018-05-26T02:39:25.317Z,10.40
2018-05-26T02:40:25.322Z,11.20
2018-05-26T02:41:25.392Z,10.00
2018-05-26T02:42:25.442Z,9.50
2018-05-26T02:43:25.506Z,9.70
2018-05-26T02:44:25.566Z,9.80
2018-05-26T02:45:25.627Z,9.90
2018-05-26T02:46:25.687Z,10.00
2018-05-26T02:47:25.748Z,9.80
2018-05-26T02:48:25.809Z,10.90
2018-05-26T02:49:25.872Z,9.80
2018-05-26T02:50:25.931Z,11.20
2018-05-26T02:51:25.991Z,10.50
2018-05-26T02:52:26.060Z,11.20
2018-05-26T02:53:26.114Z,12.80
2018-05-26T02:54:26.177Z,9.60
2018-05-26T02:55:26.234Z,11.90
2018-05-26T02:56:26.295Z,13.70
2018-05-26T02:57:26.356Z,10.90
2018-05-26T02:58:26.422Z,11.40
2018-05-26T02:59:26.477Z,13.10
2018-05-26T03:00:26.537Z,11.20
2018-05-26T03:01:26.602Z,11.20
2018-05-26T03:02:26.663Z,14.00
2018-05-26T03:03:26.727Z,10.60
2018-05-26T03:04:26.781Z,10.90
2018-05-26T03:05:26.845Z,10.70
2018-05-26T03:06:26.911Z,13.90
2018-05-26T03:07:26.963Z,10.10
2018-05-26T03:08:27.024Z,10.80
2018-05-26T03:09:27.085Z,10.20
2018-05-26T03:10:27.145Z,10.20
2018-05-26T03:11:27.228Z,12.70
2018-05-26T03:12:27.267Z,9.60
2018-05-26T03:13:27.326Z,14.60
2018-05-26T03:14:27.388Z,11.50
2018-05-26T03:15:27.458Z,10.10
2018-05-26T03:16:27.509Z,11.50
2018-05-26T03:17:27.570Z,11.20
2018-05-26T03:18:27.630Z,11.00
2018-05-26T03:19:27.691Z,11.20
2018-05-26T03:20:28.004Z,13.30
2018-05-26T03:21:27.813Z,10.90
2018-05-26T03:22:27.893Z,11.40
2018-05-26T03:23:28.338Z,12.80
2018-05-26T03:24:27.994Z,9.00
2018-05-26T03:25:28.056Z,9.40
2018-05-26T03:26:28.366Z,10.60
2018-05-26T03:27:28.177Z,9.10
2018-05-26T03:28:28.238Z,9.50
2018-05-26T03:29:28.297Z,10.00
2018-05-26T03:30:28.359Z,11.10
2018-05-26T03:31:28.418Z,10.60
2018-05-26T03:32:28.480Z,9.80
2018-05-26T03:33:28.542Z,10.60
2018-05-26T03:34:28.601Z,9.40
2018-05-26T03:35:28.662Z,9.80
2018-05-26T03:36:28.725Z,11.20
2018-05-26T03:37:28.784Z,12.20
2018-05-26T03:38:28.850Z,11.40
2018-05-26T03:39:28.907Z,11.50
2018-05-26T03:40:28.966Z,11.20
2018-05-26T03:41:29.026Z,11.50
2018-05-26T03:42:29.087Z,10.80
2018-05-26T03:43:29.147Z,10.50
2018-05-26T03:44:29.215Z,9.60
2018-05-26T03:45:29.273Z,10.70
2018-05-26T03:46:29.334Z,11.60
2018-05-26T03:47:29.390Z,11.40
2018-05-26T03:48:29.451Z,9.10
2018-05-26T03:49:29.512Z,9.00
2018-05-26T03:50:29.571Z,9.00
2018-05-26T03:51:29.632Z,12.10
2018-05-26T03:52:29.694Z,12.50
2018-05-26T03:53:29.755Z,10.60
2018-05-26T03:54:29.814Z,11.50
2018-05-26T03:55:29.876Z,9.20
2018-05-26T03:56:29.938Z,10.70
2018-05-26T03:57:29.998Z,10.80
2018-05-26T03:58:30.056Z,8.50
2018-05-26T03:59:30.117Z,11.60
2018-05-26T04:00:30.178Z,8.30
2018-05-26T04:01:30.315Z,9.50
2018-05-26T04:02:30.300Z,10.20
2018-05-26T04:03:30.361Z,9.90
2018-05-26T04:04:30.421Z,10.10
2018-05-26T04:05:30.483Z,13.10
2018-05-26T04:06:30.543Z,10.20
2018-05-26T04:07:30.606Z,10.90
2018-05-26T04:08:30.665Z,9.60
2018-05-26T04:09:30.726Z,12.30
2018-05-26T04:10:30.786Z,10.90
2018-05-26T04:11:30.847Z,10.60
2018-05-26T04:12:30.909Z,10.60
2018-05-26T04:13:30.973Z,8.90
2018-05-26T04:14:31.029Z,10.10
2018-05-26T04:15:31.090Z,13.50
2018-05-26T04:16:31.151Z,12.00
2018-05-26T04:17:31.210Z,11.10
2018-05-26T04:18:31.272Z,11.70
2018-05-26T04:19:31.333Z,9.20
2018-05-26T04:20:31.394Z,11.20
2018-05-26T04:21:31.461Z,11.60
2018-05-26T04:22:31.515Z,8.80
2018-05-26T04:23:31.577Z,10.40
2018-05-26T04:24:31.642Z,8.10
2018-05-26T04:25:31.699Z,9.80
2018-05-26T04:26:31.757Z,8.90
2018-05-26T04:27:31.818Z,9.20
2018-05-26T04:28:31.881Z,8.60
2018-05-26T04:29:32.092Z,8.80
2018-05-26T04:30:32.001Z,8.40
2018-05-26T04:31:32.063Z,9.00
2018-05-26T04:32:32.125Z,10.50
2018-05-26T04:33:32.184Z,12.50
2018-05-26T04:34:32.246Z,10.70
2018-05-26T04:35:32.306Z,11.60
2018-05-26T04:36:32.368Z,12.00
2018-05-26T04:37:32.428Z,11.10
2018-05-26T04:38:32.489Z,9.20
2018-05-26T04:39:32.550Z,10.70
2018-05-26T04:40:32.611Z,10.60
2018-05-26T04:41:32.673Z,10.40
2018-05-26T04:42:32.733Z,9.10
2018-05-26T04:43:32.794Z,9.90
2018-05-26T04:44:32.856Z,8.60
2018-05-26T04:45:32.917Z,9.50
2018-05-26T04:46:32.975Z,11.40
2018-05-26T04:47:33.038Z,9.60
2018-05-26T04:48:33.100Z,8.10
2018-05-26T04:49:33.161Z,10.90
2018-05-26T04:50:33.222Z,8.90
2018-05-26T04:51:33.283Z,8.50
2018-05-26T04:52:33.343Z,9.70
2018-05-26T04:53:33.407Z,9.80
2018-05-26T04:54:33.466Z,11.20
2018-05-26T04:55:33.529Z,11.80
2018-05-26T04:56:33.601Z,9.50
2018-05-26T04:57:33.649Z,8.90
2018-05-26T04:58:33.711Z,10.00
2018-05-26T04:59:33.771Z,9.70
2018-05-26T05:00:33.832Z,12.60
2018-05-26T05:01:33.895Z,10.30
2018-05-26T05:02:33.955Z,9.10
2018-05-26T05:03:34.017Z,9.00
2018-05-26T05:04:34.329Z,10.20
2018-05-26T05:05:34.141Z,9.20
2018-05-26T05:06:34.201Z,9.80
2018-05-26T05:07:34.261Z,11.40
2018-05-26T05:08:34.322Z,9.80
2018-05-26T05:09:34.383Z,8.90
2018-05-26T05:10:34.446Z,9.70
2018-05-26T05:11:34.511Z,10.30
2018-05-26T05:12:34.571Z,9.60
2018-05-26T05:13:34.631Z,13.30
2018-05-26T05:14:34.695Z,9.80
2018-05-26T05:15:34.757Z,10.00
2018-05-26T05:16:34.820Z,8.90
2018-05-26T05:17:34.877Z,8.70
2018-05-26T05:18:34.942Z,9.50
2018-05-26T05:19:35.003Z,12.60
2018-05-26T05:20:35.063Z,10.80
2018-05-26T05:21:35.126Z,9.50
2018-05-26T05:22:35.186Z,11.60
2018-05-26T05:23:35.247Z,10.70
2018-05-26T05:24:35.309Z,10.70
2018-05-26T05:25:35.372Z,11.60
2018-05-26T05:26:35.433Z,12.20
2018-05-26T05:27:35.495Z,13.50
2018-05-26T05:28:35.557Z,13.10
2018-05-26T05:29:35.620Z,14.80
2018-05-26T05:30:35.682Z,15.80
2018-05-26T05:31:35.743Z,16.60
2018-05-26T05:32:35.886Z,14.10
2018-05-26T05:33:35.869Z,12.90
2018-05-26T05:34:35.930Z,16.40
2018-05-26T05:35:35.992Z,14.40
2018-05-26T05:36:36.055Z,15.80
2018-05-26T05:37:36.163Z,19.70
2018-05-26T05:38:36.182Z,18.50
2018-05-26T05:39:36.243Z,15.70
2018-05-26T05:40:36.310Z,15.60
2018-05-26T05:41:36.369Z,16.40
2018-05-26T05:42:36.430Z,14.90
2018-05-26T05:43:36.493Z,14.80
2018-05-26T05:44:36.554Z,15.60
2018-05-26T05:45:36.618Z,14.50
2018-05-26T05:46:36.680Z,13.20
2018-05-26T05:47:36.743Z,14.40
2018-05-26T05:48:36.806Z,14.40
2018-05-26T05:49:36.868Z,12.70
2018-05-26T05:50:36.931Z,13.70
2018-05-26T05:51:36.994Z,14.60
2018-05-26T05:52:37.057Z,13.80
2018-05-26T05:53:37.120Z,16.10
2018-05-26T05:54:37.183Z,14.00
2018-05-26T05:55:37.246Z,14.30
2018-05-26T05:56:37.308Z,13.40
2018-05-26T05:57:37.371Z,14.40
2018-05-26T05:58:38.137Z,16.70
2018-05-26T05:59:38.210Z,14.70
2018-05-26T06:00:37.559Z,13.30
2018-05-26T06:01:37.621Z,14.90
2018-05-26T06:02:37.902Z,13.80
2018-05-26T06:03:37.745Z,14.00
2018-05-26T06:04:38.149Z,13.80
2018-05-26T06:05:37.875Z,13.30
2018-05-26T06:06:37.937Z,12.90
2018-05-26T06:07:37.996Z,11.60
2018-05-26T06:08:38.215Z,15.40
2018-05-26T06:09:38.122Z,12.90
2018-05-26T06:10:38.185Z,12.00
2018-05-26T06:11:38.250Z,14.00
2018-05-26T06:12:38.309Z,12.10
2018-05-26T06:13:38.378Z,15.20
2018-05-26T06:14:38.434Z,12.00
2018-05-26T06:15:38.498Z,14.10
2018-05-26T06:16:38.561Z,13.00
2018-05-26T06:17:38.622Z,12.30
2018-05-26T06:18:38.684Z,14.00
2018-05-26T06:19:38.747Z,14.50
2018-05-26T06:20:38.810Z,12.90
2018-05-26T06:21:38.880Z,12.20
2018-05-26T06:22:38.934Z,12.60
2018-05-26T06:23:38.996Z,14.00
2018-05-26T06:24:39.062Z,11.30
2018-05-26T06:25:39.123Z,12.70
2018-05-26T06:26:39.186Z,11.40
2018-05-26T06:27:39.246Z,12.10
2018-05-26T06:28:39.310Z,13.10
2018-05-26T06:29:39.372Z,13.70
2018-05-26T06:30:39.434Z,12.40
2018-05-26T06:31:39.499Z,13.40
2018-05-26T06:32:39.558Z,12.20
2018-05-26T06:33:39.623Z,13.30
2018-05-26T06:34:39.684Z,12.10
2018-05-26T06:35:39.746Z,13.00
2018-05-26T06:36:39.809Z,12.80
2018-05-26T06:37:39.899Z,12.80
2018-05-26T06:38:39.933Z,11.80
2018-05-26T06:39:39.997Z,11.90
2018-05-26T06:40:40.062Z,11.80
2018-05-26T06:41:40.123Z,11.20
2018-05-26T06:42:40.183Z,11.40
2018-05-26T06:43:40.246Z,12.00
2018-05-26T06:44:40.310Z,11.30
2018-05-26T06:45:40.374Z,11.90
2018-05-26T06:46:40.436Z,10.80
2018-05-26T06:47:40.499Z,10.10
2018-05-26T06:48:40.561Z,10.70
2018-05-26T06:49:40.625Z,12.50
2018-05-26T06:50:40.686Z,10.60
2018-05-26T06:51:40.748Z,11.40
2018-05-26T06:52:40.813Z,11.80
2018-05-26T06:53:40.877Z,9.40
2018-05-26T06:54:40.938Z,11.00
2018-05-26T06:55:41.000Z,12.40
2018-05-26T06:56:41.064Z,9.80
2018-05-26T06:57:41.127Z,10.80
2018-05-26T06:58:41.191Z,11.50
2018-05-26T06:59:41.253Z,10.40
2018-05-26T07:00:41.317Z,9.90
2018-05-26T07:01:41.384Z,9.10
2018-05-26T07:02:41.445Z,10.80
2018-05-26T07:03:41.507Z,10.10
2018-05-26T07:04:41.570Z,10.20
2018-05-26T07:05:41.634Z,10.50
2018-05-26T07:06:41.695Z,10.10
2018-05-26T07:07:41.759Z,10.90
2018-05-26T07:08:41.823Z,11.30
2018-05-26T07:09:41.886Z,12.10
2018-05-26T07:10:42.248Z,11.40
2018-05-26T07:11:42.013Z,9.10
2018-05-26T07:12:42.077Z,10.00
2018-05-26T07:13:42.141Z,10.10
2018-05-26T07:14:42.203Z,9.80
2018-05-26T07:15:42.267Z,10.80
2018-05-26T07:16:42.581Z,10.80
2018-05-26T07:17:42.395Z,9.50
2018-05-26T07:18:42.458Z,9.90
2018-05-26T07:19:43.108Z,10.40
2018-05-26T07:20:42.589Z,9.50
2018-05-26T07:21:42.649Z,9.00
2018-05-26T07:22:42.716Z,10.40
2018-05-26T07:23:42.777Z,12.50
2018-05-26T07:24:42.870Z,9.70
2018-05-26T07:25:42.906Z,9.50
2018-05-26T07:26:42.972Z,8.80
2018-05-26T07:27:43.033Z,9.70
2018-05-26T07:28:43.096Z,10.60
2018-05-26T07:29:43.168Z,8.50
2018-05-26T07:30:43.226Z,9.70
2018-05-26T07:31:43.289Z,9.30
2018-05-26T07:32:43.354Z,12.50
2018-05-26T07:33:43.618Z,9.60
2018-05-26T07:34:43.485Z,9.00
2018-05-26T07:35:43.546Z,9.20
2018-05-26T07:36:43.610Z,10.30
2018-05-26T07:37:43.675Z,9.50
2018-05-26T07:38:43.739Z,10.80
2018-05-26T07:39:43.803Z,9.00
2018-05-26T07:40:43.872Z,9.40
2018-05-26T07:41:43.931Z,9.00
2018-05-26T07:42:43.996Z,9.50
2018-05-26T07:43:44.061Z,9.30
2018-05-26T07:44:44.127Z,9.80
2018-05-26T07:45:44.190Z,9.60
2018-05-26T07:46:44.255Z,8.80
2018-05-26T07:47:44.319Z,8.50
2018-05-26T07:48:44.383Z,8.80
2018-05-26T07:49:44.447Z,10.20
2018-05-26T07:50:44.512Z,8.10
2018-05-26T07:51:44.575Z,7.70
2018-05-26T07:52:44.641Z,8.70
2018-05-26T07:53:44.707Z,9.20
2018-05-26T07:54:44.775Z,8.90
2018-05-26T07:55:44.834Z,9.00
2018-05-26T07:56:44.901Z,8.00
2018-05-26T07:57:44.966Z,8.20
2018-05-26T07:58:45.029Z,9.80
2018-05-26T07:59:45.095Z,8.00
2018-05-26T08:00:45.222Z,8.50
2018-05-26T08:01:45.224Z,9.90
2018-05-26T08:02:45.290Z,7.70
2018-05-26T08:03:45.355Z,9.80
2018-05-26T08:04:45.421Z,8.10
2018-05-26T08:05:45.485Z,7.60
2018-05-26T08:06:45.549Z,7.20
2018-05-26T08:07:45.615Z,8.90
2018-05-26T08:08:45.682Z,7.30
2018-05-26T08:09:45.753Z,7.40
2018-05-26T08:10:45.812Z,6.90
2018-05-26T08:11:45.883Z,7.20
2018-05-26T08:12:45.968Z,6.20
2018-05-26T08:13:46.009Z,7.80
2018-05-26T08:14:46.074Z,7.00
2018-05-26T08:15:46.141Z,7.30
2018-05-26T08:16:46.207Z,7.80
2018-05-26T08:17:46.273Z,7.00
2018-05-26T08:18:46.338Z,6.30
2018-05-26T08:19:46.404Z,10.00
2018-05-26T08:20:46.473Z,8.00
2018-05-26T08:21:46.536Z,9.30
2018-05-26T08:22:46.602Z,7.10
2018-05-26T08:23:46.666Z,7.10
2018-05-26T08:24:46.733Z,6.10
2018-05-26T08:25:46.801Z,7.30
2018-05-26T08:26:46.865Z,9.30
2018-05-26T08:27:46.933Z,7.90
2018-05-26T08:28:46.998Z,8.70
2018-05-26T08:29:47.073Z,7.80
2018-05-26T08:30:47.130Z,7.20
2018-05-26T08:31:47.202Z,7.30
2018-05-26T08:32:47.263Z,5.50
2018-05-26T08:33:47.350Z,7.90
2018-05-26T08:34:47.394Z,6.20
2018-05-26T08:35:47.462Z,8.20
2018-05-26T08:36:47.528Z,6.70
2018-05-26T08:37:47.595Z,6.90
2018-05-26T08:38:47.660Z,6.50
2018-05-26T08:39:47.727Z,8.30
2018-05-26T08:41:00.531Z,5.80
2018-05-26T08:41:48.111Z,8.00
2018-05-26T08:42:47.926Z,5.90
2018-05-26T08:43:47.995Z,6.30
2018-05-26T08:44:48.064Z,7.40
2018-05-26T08:45:48.126Z,7.30
2018-05-26T08:46:48.528Z,8.10
2018-05-26T08:47:48.259Z,7.20
2018-05-26T08:48:48.328Z,7.50
2018-05-26T08:49:48.394Z,5.30
2018-05-26T08:50:48.460Z,6.00
2018-05-26T08:51:48.541Z,5.80
2018-05-26T08:52:48.594Z,7.30
2018-05-26T08:53:48.914Z,7.70
2018-05-26T08:54:48.765Z,7.90
2018-05-26T08:55:48.794Z,7.70
2018-05-26T08:56:48.872Z,6.50
2018-05-26T08:57:48.928Z,6.20
2018-05-26T08:58:48.995Z,6.70
2018-05-26T08:59:49.062Z,7.70
2018-05-26T09:00:49.129Z,6.70
2018-05-26T09:01:49.197Z,6.50
2018-05-26T09:02:49.263Z,6.50
2018-05-26T09:03:49.330Z,7.10
2018-05-26T09:04:49.604Z,7.50
2018-05-26T09:05:49.468Z,6.10
2018-05-26T09:06:49.532Z,6.60
2018-05-26T09:07:49.600Z,6.70
2018-05-26T09:08:49.666Z,6.90
2018-05-26T09:09:49.734Z,7.90
2018-05-26T09:10:49.804Z,6.60
2018-05-26T09:11:49.868Z,6.10
2018-05-26T09:12:49.936Z,7.10
2018-05-26T09:13:50.004Z,6.50
2018-05-26T09:14:50.088Z,6.40
2018-05-26T09:15:50.187Z,7.70
2018-05-26T09:16:50.206Z,6.30
2018-05-26T09:17:50.319Z,7.00
2018-05-26T09:18:50.340Z,6.40
2018-05-26T09:19:50.413Z,7.70
2018-05-26T09:20:50.476Z,8.30
2018-05-26T09:21:50.609Z,6.90
2018-05-26T09:22:50.610Z,5.90
2018-05-26T09:23:50.678Z,7.50
2018-05-26T09:24:50.747Z,6.60
2018-05-26T09:25:50.813Z,7.10
2018-05-26T09:26:50.881Z,7.40
2018-05-26T09:27:50.949Z,6.60
2018-05-26T09:28:51.020Z,6.90
2018-05-26T09:29:51.086Z,7.20
2018-05-26T09:30:51.151Z,6.80
2018-05-26T09:31:51.219Z,6.10
2018-05-26T09:32:51.288Z,6.90
2018-05-26T09:33:51.357Z,7.90
2018-05-26T09:34:51.421Z,6.10
2018-05-26T09:35:51.490Z,8.00
2018-05-26T09:36:51.560Z,6.50
2018-05-26T09:37:51.627Z,6.40
2018-05-26T09:38:51.695Z,9.90
2018-05-26T09:39:51.762Z,6.40
2018-05-26T09:40:51.829Z,5.90
2018-05-26T09:41:51.903Z,5.70
2018-05-26T09:42:51.966Z,7.20
2018-05-26T09:43:52.033Z,9.40
2018-05-26T09:44:52.102Z,5.70
2018-05-26T09:45:52.171Z,7.40
2018-05-26T09:46:52.238Z,9.50
2018-05-26T09:47:52.306Z,6.00
2018-05-26T09:48:52.376Z,6.60
2018-05-26T09:49:52.444Z,6.70
2018-05-26T09:50:52.511Z,7.60
2018-05-26T09:51:52.583Z,5.00
2018-05-26T09:52:52.648Z,5.90
2018-05-26T09:53:52.716Z,6.40
2018-05-26T09:54:52.788Z,6.90
2018-05-26T09:55:52.852Z,7.30
2018-05-26T09:56:52.924Z,6.50
2018-05-26T09:57:52.990Z,5.40
2018-05-26T09:58:53.057Z,6.40
2018-05-26T09:59:53.128Z,6.40
2018-05-26T10:00:53.196Z,6.60
2018-05-26T10:01:53.269Z,5.80
2018-05-26T10:02:53.333Z,5.70
2018-05-26T10:03:53.402Z,6.50
2018-05-26T10:04:53.475Z,5.80
2018-05-26T10:05:53.550Z,5.00
2018-05-26T10:06:53.614Z,5.10
2018-05-26T10:07:53.682Z,5.00
2018-05-26T10:08:53.754Z,6.20
2018-05-26T10:09:53.821Z,7.40
2018-05-26T10:10:54.561Z,5.50
2018-05-26T10:11:53.963Z,4.90
2018-05-26T10:12:54.877Z,6.20
2018-05-26T10:13:54.640Z,4.90
2018-05-26T10:14:54.725Z,5.40
2018-05-26T10:15:54.841Z,4.80
2018-05-26T10:16:54.991Z,4.40
2018-05-26T10:17:54.392Z,4.60
2018-05-26T10:18:54.464Z,4.30
2018-05-26T10:19:54.566Z,4.50
2018-05-26T10:20:54.609Z,4.30
2018-05-26T10:21:54.683Z,5.00
2018-05-26T10:22:54.754Z,5.20
2018-05-26T10:23:54.829Z,5.70
2018-05-26T10:24:54.903Z,6.60
2018-05-26T10:25:55.072Z,5.00
2018-05-26T10:26:55.440Z,4.40
2018-05-26T10:27:55.122Z,5.90
2018-05-26T10:28:55.198Z,4.50
2018-05-26T10:29:55.303Z,4.00
2018-05-26T10:30:55.345Z,4.80
2018-05-26T10:31:55.422Z,3.90
2018-05-26T10:32:55.497Z,4.40
2018-05-26T10:33:55.573Z,5.50
2018-05-26T10:34:55.675Z,4.10
2018-05-26T10:35:55.723Z,5.30
2018-05-26T10:36:55.802Z,4.00
2018-05-26T10:37:55.874Z,5.00
2018-05-26T10:38:55.950Z,4.10
2018-05-26T10:39:56.029Z,4.50
2018-05-26T10:40:56.101Z,4.90
2018-05-26T10:41:56.178Z,7.20
2018-05-26T10:42:56.255Z,4.00
2018-05-26T10:43:56.330Z,5.50
2018-05-26T10:44:56.407Z,4.50
2018-05-26T10:45:56.484Z,4.10
2018-05-26T10:46:56.559Z,8.20
2018-05-26T10:47:56.672Z,4.10
2018-05-26T10:48:56.711Z,4.60
2018-05-26T10:49:56.797Z,3.70
2018-05-26T10:50:56.864Z,4.00
2018-05-26T10:51:56.940Z,4.90
2018-05-26T10:52:57.030Z,4.50
2018-05-26T10:53:57.095Z,5.00
2018-05-26T10:54:57.170Z,6.60
2018-05-26T10:55:57.283Z,4.20
2018-05-26T10:56:57.324Z,4.10
2018-05-26T10:57:57.400Z,4.70
2018-05-26T10:58:57.477Z,4.70
2018-05-26T10:59:57.554Z,6.00
2018-05-26T11:00:57.631Z,4.40
2018-05-26T11:01:57.706Z,4.00
2018-05-26T11:02:57.782Z,3.70
2018-05-26T11:03:57.859Z,5.40
2018-05-26T11:04:57.937Z,6.60
2018-05-26T11:05:58.012Z,5.10
2018-05-26T11:06:58.088Z,4.40
2018-05-26T11:07:58.164Z,3.90
2018-05-26T11:08:58.241Z,5.70
2018-05-26T11:09:59.058Z,4.30
2018-05-26T11:10:58.394Z,4.10
2018-05-26T11:11:58.472Z,4.10
2018-05-26T11:12:58.547Z,5.10
2018-05-26T11:13:58.628Z,4.30
2018-05-26T11:14:58.698Z,4.40
2018-05-26T11:15:58.779Z,5.40
2018-05-26T11:16:58.851Z,4.70
2018-05-26T11:17:59.114Z,4.50
2018-05-26T11:18:59.027Z,4.70
2018-05-26T11:19:59.082Z,4.10
2018-05-26T11:20:59.159Z,6.60
2018-05-26T11:21:59.235Z,6.00
2018-05-26T11:22:59.311Z,4.60
2018-05-26T11:23:59.401Z,4.90
2018-05-26T11:24:59.463Z,3.90
2018-05-26T11:25:59.611Z,4.10
2018-05-26T11:26:59.616Z,6.60
2018-05-26T11:27:59.690Z,3.90
2018-05-26T11:28:59.804Z,4.70
2018-05-26T11:29:59.841Z,5.20
2018-05-26T11:30:59.968Z,4.30
2018-05-26T11:31:59.992Z,4.70
2018-05-26T11:33:00.067Z,3.80
2018-05-26T11:34:00.143Z,4.30
2018-05-26T11:35:00.220Z,4.10
2018-05-26T11:36:00.295Z,4.90
2018-05-26T11:37:00.373Z,4.00
2018-05-26T11:38:00.447Z,4.10
2018-05-26T11:39:00.524Z,3.60
2018-05-26T11:40:01.059Z,7.40
2018-05-26T11:41:00.676Z,4.00
2018-05-26T11:42:00.752Z,4.50
2018-05-26T11:43:00.831Z,4.40
2018-05-26T11:44:00.905Z,3.50
2018-05-26T11:45:00.980Z,5.50
2018-05-26T11:46:01.059Z,4.40
2018-05-26T11:47:01.133Z,4.70
2018-05-26T11:48:01.212Z,4.20
2018-05-26T11:49:01.288Z,4.60
2018-05-26T11:50:01.370Z,5.10
2018-05-26T11:51:01.440Z,4.90
2018-05-26T11:52:01.517Z,3.60
2018-05-26T11:53:01.593Z,6.00
2018-05-26T11:54:01.669Z,3.70
2018-05-26T11:55:01.746Z,4.10
2018-05-26T11:56:01.820Z,6.30
2018-05-26T11:57:01.897Z,4.00
2018-05-26T11:58:01.971Z,5.60
2018-05-26T11:59:02.046Z,4.70
2018-05-26T12:00:02.122Z,5.40
2018-05-26T12:01:02.198Z,4.60
2018-05-26T12:02:02.329Z,4.00
2018-05-26T12:03:02.349Z,4.20
2018-05-26T12:04:02.425Z,4.10
2018-05-26T12:05:02.501Z,4.00
2018-05-26T12:06:02.580Z,5.20
2018-05-26T12:07:02.657Z,4.10
2018-05-26T12:08:02.730Z,4.80
2018-05-26T12:09:02.805Z,4.30
2018-05-26T12:10:02.883Z,5.40
2018-05-26T12:11:02.959Z,4.30
2018-05-26T12:12:03.033Z,4.20
2018-05-26T12:13:03.112Z,4.50
2018-05-26T12:14:03.189Z,3.70
2018-05-26T12:15:03.268Z,3.80
2018-05-26T12:16:03.343Z,4.90
2018-05-26T12:17:03.419Z,4.00
2018-05-26T12:18:03.495Z,4.00
2018-05-26T12:19:03.572Z,3.70
2018-05-26T12:20:03.656Z,4.50
2018-05-26T12:21:03.729Z,5.40
2018-05-26T12:22:03.804Z,3.90
2018-05-26T12:23:03.881Z,4.10
2018-05-26T12:24:03.972Z,4.30
2018-05-26T12:25:04.036Z,6.70
2018-05-26T12:26:04.113Z,5.30
2018-05-26T12:27:04.191Z,4.60
2018-05-26T12:28:04.269Z,4.70
2018-05-26T12:29:04.345Z,4.40
2018-05-26T12:30:04.424Z,6.70
2018-05-26T12:31:04.498Z,4.00
2018-05-26T12:32:04.577Z,4.70
2018-05-26T12:33:04.654Z,6.40
2018-05-26T12:34:04.777Z,3.60
2018-05-26T12:35:04.807Z,4.00
2018-05-26T12:36:05.134Z,3.90
2018-05-26T12:37:04.961Z,4.50
2018-05-26T12:38:05.038Z,3.80
2018-05-26T12:39:05.114Z,4.70
2018-05-26T12:40:05.217Z,3.80
2018-05-26T12:41:05.267Z,3.60
2018-05-26T12:42:05.345Z,5.10
2018-05-26T12:43:05.422Z,4.20
2018-05-26T12:44:05.500Z,3.80
2018-05-26T12:45:05.578Z,4.60
2018-05-26T12:46:05.654Z,6.60
2018-05-26T12:47:05.732Z,4.00
2018-05-26T12:48:05.809Z,4.90
2018-05-26T12:49:05.888Z,4.10
2018-05-26T12:50:05.966Z,3.60
2018-05-26T12:51:06.047Z,4.00
2018-05-26T12:52:06.144Z,3.40
2018-05-26T12:53:06.449Z,4.60
2018-05-26T12:54:06.278Z,4.50
2018-05-26T12:55:06.356Z,4.30
2018-05-26T12:56:06.433Z,3.50
2018-05-26T12:57:06.512Z,3.70
2018-05-26T12:58:06.590Z,4.00
2018-05-26T12:59:06.667Z,4.80
2018-05-26T13:00:06.745Z,4.20
2018-05-26T13:01:06.824Z,4.20
2018-05-26T13:02:06.904Z,3.20
2018-05-26T13:03:06.980Z,4.30
2018-05-26T13:04:07.061Z,4.70
2018-05-26T13:05:07.138Z,4.00
2018-05-26T13:06:07.261Z,4.80
2018-05-26T13:07:07.297Z,3.60